KIZG

Details ICAO KIZG
Name EASTERN SLOPES RGNL
Region United States
Timezone America/New_York (UTC-5.0)
Plans Departing 2
Arriving 1
Stats Elevation 454 ft / 138 m (AMSL)
Location 43.991036° -70.948400°
Runways 1
Magnetic Variation 15.140° W
Sunrise 2017-12-17 12:14:28 UTC / 2017-12-17 07:14:28 Local
Sunset 2017-12-17 21:08:17 UTC / 2017-12-17 16:08:17 Local
Advertisement - Login to hide

Runways

ID Width Length Bearing (true) Bearing (mag) Surface Threshold Offset Overrun Length
14 75 ft / 23 m 4,195 ft / 1,279 m 126.09° 141.23° Asphalt 0 ft / 0 m 0 ft / 0 m
32 75 ft / 23 m 4,195 ft / 1,279 m 306.10° 321.24° Asphalt 0 ft / 0 m 0 ft / 0 m

Map

Weather


0- 5 10 15 20 25 30 35+ Temperature / ° C

Clouds and Precipitation
Forecast for 2017-12-17 18:00 UTC. Updated an hour ago

Ground ~20,000 ft ~40,000 ft Winds

METAR

KIZG 171554Z AUTO 03005KT 10SM CLR M08/M13 A3020 RMK AO2 SLP235 T10781128

TAF

Not found

Frequencies

Recorded 135.77 MHz ASOS
Approach 125.50 MHz PORTLAND APP/DEP
Unicom 122.80 MHz CTAF/UNICOM
Warning: Do not use this data for real-world aviation or navigation. No guarantee of current accuracy is given.